sensor_id;sensor_type;location;lat;lon;timestamp;P1;P2;P0
48893;PMS5003;34710;35.798;139.446;2023-06-26T00:00:39;47;38;
48893;PMS5003;34710;35.798;139.446;2023-06-26T00:03:04;53;37;
48893;PMS5003;34710;35.798;139.446;2023-06-26T00:05:30;44;42;
48893;PMS5003;34710;35.798;139.446;2023-06-26T00:07:54;40;35;
48893;PMS5003;34710;35.798;139.446;2023-06-26T00:10:20;56;42;
48893;PMS5003;34710;35.798;139.446;2023-06-26T00:12:46;42;38;
48893;PMS5003;34710;35.798;139.446;2023-06-26T00:15:11;51;44;
48893;PMS5003;34710;35.798;139.446;2023-06-26T00:17:37;52;39;
48893;PMS5003;34710;35.798;139.446;2023-06-26T00:20:03;53;45;
48893;PMS5003;34710;35.798;139.446;2023-06-26T00:22:28;55;43;
48893;PMS5003;34710;35.798;139.446;2023-06-26T00:24:53;55;39;
48893;PMS5003;34710;35.798;139.446;2023-06-26T00:27:20;47;38;
48893;PMS5003;34710;35.798;139.446;2023-06-26T00:29:45;47;40;
48893;PMS5003;34710;35.798;139.446;2023-06-26T00:32:10;44;43;
48893;PMS5003;34710;35.798;139.446;2023-06-26T00:34:36;50;40;
48893;PMS5003;34710;35.798;139.446;2023-06-26T00:37:01;42;41;
48893;PMS5003;34710;35.798;139.446;2023-06-26T00:39:27;55;40;
48893;PMS5003;34710;35.798;139.446;2023-06-26T00:41:52;49;40;
48893;PMS5003;34710;35.798;139.446;2023-06-26T00:44:18;53;44;
48893;PMS5003;34710;35.798;139.446;2023-06-26T00:46:43;64;49;
48893;PMS5003;34710;35.798;139.446;2023-06-26T00:49:09;59;42;
48893;PMS5003;34710;35.798;139.446;2023-06-26T00:51:35;43;41;
48893;PMS5003;34710;35.798;139.446;2023-06-26T00:54:00;55;41;
48893;PMS5003;34710;35.798;139.446;2023-06-26T00:56:25;59;44;
48893;PMS5003;34710;35.798;139.446;2023-06-26T00:58:51;53;41;
48893;PMS5003;34710;35.798;139.446;2023-06-26T01:01:16;51;44;
48893;PMS5003;34710;35.798;139.446;2023-06-26T01:03:41;48;42;
48893;PMS5003;34710;35.798;139.446;2023-06-26T01:06:07;54;43;
48893;PMS5003;34710;35.798;139.446;2023-06-26T01:08:32;62;47;
48893;PMS5003;34710;35.798;139.446;2023-06-26T01:10:58;56;46;
48893;PMS5003;34710;35.798;139.446;2023-06-26T01:13:23;48;41;
48893;PMS5003;34710;35.798;139.446;2023-06-26T01:15:48;60;45;
48893;PMS5003;34710;35.798;139.446;2023-06-26T01:18:13;55;49;
48893;PMS5003;34710;35.798;139.446;2023-06-26T01:20:39;41;41;
48893;PMS5003;34710;35.798;139.446;2023-06-26T01:23:07;55;44;
48893;PMS5003;34710;35.798;139.446;2023-06-26T01:25:32;56;43;
48893;PMS5003;34710;35.798;139.446;2023-06-26T01:27:55;58;43;
48893;PMS5003;34710;35.798;139.446;2023-06-26T01:30:21;56;44;
48893;PMS5003;34710;35.798;139.446;2023-06-26T01:32:46;59;43;
48893;PMS5003;34710;35.798;139.446;2023-06-26T01:35:11;52;37;
48893;PMS5003;34710;35.798;139.446;2023-06-26T01:37:37;43;42;
48893;PMS5003;34710;35.798;139.446;2023-06-26T01:40:02;57;47;
48893;PMS5003;34710;35.798;139.446;2023-06-26T01:42:28;55;41;
48893;PMS5003;34710;35.798;139.446;2023-06-26T01:44:53;46;42;
48893;PMS5003;34710;35.798;139.446;2023-06-26T01:47:19;48;40;
48893;PMS5003;34710;35.798;139.446;2023-06-26T01:49:46;49;39;
48893;PMS5003;34710;35.798;139.446;2023-06-26T01:52:12;53;41;
48893;PMS5003;34710;35.798;139.446;2023-06-26T01:54:35;46;42;
48893;PMS5003;34710;35.798;139.446;2023-06-26T01:56:59;47;42;
48893;PMS5003;34710;35.798;139.446;2023-06-26T01:59:24;44;40;
48893;PMS5003;34710;35.798;139.446;2023-06-26T02:01:50;59;44;
48893;PMS5003;34710;35.798;139.446;2023-06-26T02:04:16;46;41;
48893;PMS5003;34710;35.798;139.446;2023-06-26T02:06:41;52;37;
48893;PMS5003;34710;35.798;139.446;2023-06-26T02:09:06;44;40;
48893;PMS5003;34710;35.798;139.446;2023-06-26T02:11:31;56;45;
48893;PMS5003;34710;35.798;139.446;2023-06-26T02:13:57;45;43;
48893;PMS5003;34710;35.798;139.446;2023-06-26T02:16:23;52;42;
48893;PMS5003;34710;35.798;139.446;2023-06-26T02:18:48;43;39;
48893;PMS5003;34710;35.798;139.446;2023-06-26T02:21:14;45;41;
48893;PMS5003;34710;35.798;139.446;2023-06-26T02:23:39;49;41;
48893;PMS5003;34710;35.798;139.446;2023-06-26T02:26:05;48;43;
48893;PMS5003;34710;35.798;139.446;2023-06-26T02:28:30;40;40;
48893;PMS5003;34710;35.798;139.446;2023-06-26T02:30:55;53;42;
48893;PMS5003;34710;35.798;139.446;2023-06-26T02:33:21;43;42;
48893;PMS5003;34710;35.798;139.446;2023-06-26T02:35:46;39;39;
48893;PMS5003;34710;35.798;139.446;2023-06-26T02:38:11;46;42;
48893;PMS5003;34710;35.798;139.446;2023-06-26T02:40:37;52;44;
48893;PMS5003;34710;35.798;139.446;2023-06-26T02:43:02;46;42;
48893;PMS5003;34710;35.798;139.446;2023-06-26T02:45:28;53;41;
48893;PMS5003;34710;35.798;139.446;2023-06-26T02:47:53;42;40;
48893;PMS5003;34710;35.798;139.446;2023-06-26T02:50:18;53;42;
48893;PMS5003;34710;35.798;139.446;2023-06-26T02:52:43;54;41;
48893;PMS5003;34710;35.798;139.446;2023-06-26T02:55:09;47;42;
48893;PMS5003;34710;35.798;139.446;2023-06-26T02:57:35;52;43;
48893;PMS5003;34710;35.798;139.446;2023-06-26T03:00:00;45;45;
48893;PMS5003;34710;35.798;139.446;2023-06-26T03:02:26;48;47;
48893;PMS5003;34710;35.798;139.446;2023-06-26T03:04:51;52;45;
48893;PMS5003;34710;35.798;139.446;2023-06-26T03:07:17;53;46;
48893;PMS5003;34710;35.798;139.446;2023-06-26T03:09:43;57;45;
48893;PMS5003;34710;35.798;139.446;2023-06-26T03:12:09;59;45;
48893;PMS5003;34710;35.798;139.446;2023-06-26T03:14:34;45;44;
48893;PMS5003;34710;35.798;139.446;2023-06-26T03:16:59;53;44;
48893;PMS5003;34710;35.798;139.446;2023-06-26T03:19:25;51;46;
48893;PMS5003;34710;35.798;139.446;2023-06-26T03:21:50;49;47;
48893;PMS5003;34710;35.798;139.446;2023-06-26T03:24:16;57;46;
48893;PMS5003;34710;35.798;139.446;2023-06-26T03:26:42;51;46;
48893;PMS5003;34710;35.798;139.446;2023-06-26T03:29:08;40;38;
48893;PMS5003;34710;35.798;139.446;2023-06-26T03:31:33;45;44;
48893;PMS5003;34710;35.798;139.446;2023-06-26T03:33:58;61;48;
48893;PMS5003;34710;35.798;139.446;2023-06-26T03:36:23;47;44;
48893;PMS5003;34710;35.798;139.446;2023-06-26T03:38:49;56;50;
48893;PMS5003;34710;35.798;139.446;2023-06-26T03:41:14;59;50;
48893;PMS5003;34710;35.798;139.446;2023-06-26T03:43:40;54;44;
48893;PMS5003;34710;35.798;139.446;2023-06-26T03:46:06;55;43;
48893;PMS5003;34710;35.798;139.446;2023-06-26T03:48:31;51;43;
48893;PMS5003;34710;35.798;139.446;2023-06-26T03:50:57;53;46;
48893;PMS5003;34710;35.798;139.446;2023-06-26T03:53:23;61;49;
48893;PMS5003;34710;35.798;139.446;2023-06-26T03:55:48;68;53;
48893;PMS5003;34710;35.798;139.446;2023-06-26T03:58:13;53;48;
48893;PMS5003;34710;35.798;139.446;2023-06-26T04:00:39;45;44;
48893;PMS5003;34710;35.798;139.446;2023-06-26T04:03:04;47;46;
48893;PMS5003;34710;35.798;139.446;2023-06-26T04:05:30;51;49;
48893;PMS5003;34710;35.798;139.446;2023-06-26T04:07:55;57;43;
48893;PMS5003;34710;35.798;139.446;2023-06-26T04:10:21;52;46;
48893;PMS5003;34710;35.798;139.446;2023-06-26T04:12:46;49;42;
48893;PMS5003;34710;35.798;139.446;2023-06-26T04:15:12;55;44;
48893;PMS5003;34710;35.798;139.446;2023-06-26T04:17:37;54;49;
48893;PMS5003;34710;35.798;139.446;2023-06-26T04:20:02;51;46;
48893;PMS5003;34710;35.798;139.446;2023-06-26T04:22:27;54;45;
48893;PMS5003;34710;35.798;139.446;2023-06-26T04:24:53;60;48;
48893;PMS5003;34710;35.798;139.446;2023-06-26T04:27:19;52;44;
48893;PMS5003;34710;35.798;139.446;2023-06-26T04:29:44;53;44;
48893;PMS5003;34710;35.798;139.446;2023-06-26T04:32:09;45;45;
48893;PMS5003;34710;35.798;139.446;2023-06-26T04:34:35;55;43;
48893;PMS5003;34710;35.798;139.446;2023-06-26T04:37:00;53;45;
48893;PMS5003;34710;35.798;139.446;2023-06-26T04:39:25;43;43;
48893;PMS5003;34710;35.798;139.446;2023-06-26T04:41:51;46;43;
48893;PMS5003;34710;35.798;139.446;2023-06-26T04:44:16;45;40;
48893;PMS5003;34710;35.798;139.446;2023-06-26T04:46:41;57;45;
48893;PMS5003;34710;35.798;139.446;2023-06-26T04:49:07;61;43;
48893;PMS5003;34710;35.798;139.446;2023-06-26T04:51:32;47;44;
48893;PMS5003;34710;35.798;139.446;2023-06-26T04:53:58;49;45;
48893;PMS5003;34710;35.798;139.446;2023-06-26T04:56:24;49;41;
48893;PMS5003;34710;35.798;139.446;2023-06-26T04:58:50;59;43;
48893;PMS5003;34710;35.798;139.446;2023-06-26T05:01:15;55;43;
48893;PMS5003;34710;35.798;139.446;2023-06-26T05:03:41;44;44;
48893;PMS5003;34710;35.798;139.446;2023-06-26T05:06:07;47;45;
48893;PMS5003;34710;35.798;139.446;2023-06-26T05:08:32;52;47;
48893;PMS5003;34710;35.798;139.446;2023-06-26T05:10:58;44;42;
48893;PMS5003;34710;35.798;139.446;2023-06-26T05:13:23;57;44;
48893;PMS5003;34710;35.798;139.446;2023-06-26T05:15:49;59;48;
48893;PMS5003;34710;35.798;139.446;2023-06-26T05:18:14;49;44;
48893;PMS5003;34710;35.798;139.446;2023-06-26T05:20:40;54;43;
48893;PMS5003;34710;35.798;139.446;2023-06-26T05:23:05;41;38;
48893;PMS5003;34710;35.798;139.446;2023-06-26T05:25:30;56;45;
48893;PMS5003;34710;35.798;139.446;2023-06-26T05:27:56;54;43;
48893;PMS5003;34710;35.798;139.446;2023-06-26T05:30:21;49;42;
48893;PMS5003;34710;35.798;139.446;2023-06-26T05:32:46;47;43;
48893;PMS5003;34710;35.798;139.446;2023-06-26T05:35:11;55;48;
48893;PMS5003;34710;35.798;139.446;2023-06-26T05:37:37;51;40;
48893;PMS5003;34710;35.798;139.446;2023-06-26T05:40:02;52;39;
48893;PMS5003;34710;35.798;139.446;2023-06-26T05:42:28;59;42;
48893;PMS5003;34710;35.798;139.446;2023-06-26T05:44:53;49;41;
48893;PMS5003;34710;35.798;139.446;2023-06-26T05:47:19;54;41;
48893;PMS5003;34710;35.798;139.446;2023-06-26T05:49:44;42;38;
48893;PMS5003;34710;35.798;139.446;2023-06-26T05:52:10;58;45;
48893;PMS5003;34710;35.798;139.446;2023-06-26T05:54:35;58;46;
48893;PMS5003;34710;35.798;139.446;2023-06-26T05:57:01;44;38;
48893;PMS5003;34710;35.798;139.446;2023-06-26T05:59:26;46;34;
48893;PMS5003;34710;35.798;139.446;2023-06-26T06:01:51;34;29;
48893;PMS5003;34710;35.798;139.446;2023-06-26T06:04:16;29;29;
48893;PMS5003;34710;35.798;139.446;2023-06-26T06:06:42;38;28;
48893;PMS5003;34710;35.798;139.446;2023-06-26T06:09:07;43;30;
48893;PMS5003;34710;35.798;139.446;2023-06-26T06:11:33;29;29;
48893;PMS5003;34710;35.798;139.446;2023-06-26T06:13:58;34;30;
48893;PMS5003;34710;35.798;139.446;2023-06-26T06:16:24;38;27;
48893;PMS5003;34710;35.798;139.446;2023-06-26T06:18:49;31;27;
48893;PMS5003;34710;35.798;139.446;2023-06-26T06:21:14;29;28;
48893;PMS5003;34710;35.798;139.446;2023-06-26T06:23:39;26;26;
48893;PMS5003;34710;35.798;139.446;2023-06-26T06:26:05;26;26;
48893;PMS5003;34710;35.798;139.446;2023-06-26T06:28:30;26;25;
48893;PMS5003;34710;35.798;139.446;2023-06-26T06:30:56;25;22;
48893;PMS5003;34710;35.798;139.446;2023-06-26T06:33:21;24;21;
48893;PMS5003;34710;35.798;139.446;2023-06-26T06:35:47;27;27;
48893;PMS5003;34710;35.798;139.446;2023-06-26T06:38:12;34;24;
48893;PMS5003;34710;35.798;139.446;2023-06-26T06:40:38;35;25;
48893;PMS5003;34710;35.798;139.446;2023-06-26T06:43:02;23;23;
48893;PMS5003;34710;35.798;139.446;2023-06-26T06:45:27;24;23;
48893;PMS5003;34710;35.798;139.446;2023-06-26T06:47:53;32;24;
48893;PMS5003;34710;35.798;139.446;2023-06-26T06:50:18;24;24;
48893;PMS5003;34710;35.798;139.446;2023-06-26T06:52:44;27;27;
48893;PMS5003;34710;35.798;139.446;2023-06-26T06:55:09;32;25;
48893;PMS5003;34710;35.798;139.446;2023-06-26T06:57:34;26;24;
48893;PMS5003;34710;35.798;139.446;2023-06-26T06:59:59;25;24;
48893;PMS5003;34710;35.798;139.446;2023-06-26T07:02:25;27;22;
48893;PMS5003;34710;35.798;139.446;2023-06-26T07:04:50;23;23;
48893;PMS5003;34710;35.798;139.446;2023-06-26T07:07:18;25;24;
48893;PMS5003;34710;35.798;139.446;2023-06-26T07:09:41;26;25;
48893;PMS5003;34710;35.798;139.446;2023-06-26T07:12:07;23;22;
48893;PMS5003;34710;35.798;139.446;2023-06-26T07:14:32;30;21;
48893;PMS5003;34710;35.798;139.446;2023-06-26T07:16:57;28;24;
48893;PMS5003;34710;35.798;139.446;2023-06-26T07:19:22;20;20;
48893;PMS5003;34710;35.798;139.446;2023-06-26T07:21:47;25;22;
48893;PMS5003;34710;35.798;139.446;2023-06-26T07:24:12;25;24;
48893;PMS5003;34710;35.798;139.446;2023-06-26T07:26:38;24;23;
48893;PMS5003;34710;35.798;139.446;2023-06-26T07:29:03;28;23;
48893;PMS5003;34710;35.798;139.446;2023-06-26T07:31:29;24;24;
48893;PMS5003;34710;35.798;139.446;2023-06-26T07:33:54;24;23;
48893;PMS5003;34710;35.798;139.446;2023-06-26T07:36:19;20;20;
48893;PMS5003;34710;35.798;139.446;2023-06-26T07:38:45;25;22;
48893;PMS5003;34710;35.798;139.446;2023-06-26T07:41:10;31;22;
48893;PMS5003;34710;35.798;139.446;2023-06-26T07:43:35;22;19;
48893;PMS5003;34710;35.798;139.446;2023-06-26T07:46:00;22;22;
48893;PMS5003;34710;35.798;139.446;2023-06-26T07:48:26;22;20;
48893;PMS5003;34710;35.798;139.446;2023-06-26T07:50:52;31;23;
48893;PMS5003;34710;35.798;139.446;2023-06-26T07:53:18;30;23;
48893;PMS5003;34710;35.798;139.446;2023-06-26T07:55:43;23;23;
48893;PMS5003;34710;35.798;139.446;2023-06-26T07:58:08;21;21;
48893;PMS5003;34710;35.798;139.446;2023-06-26T08:00:33;32;26;
48893;PMS5003;34710;35.798;139.446;2023-06-26T08:02:58;19;18;
48893;PMS5003;34710;35.798;139.446;2023-06-26T08:05:23;25;23;
48893;PMS5003;34710;35.798;139.446;2023-06-26T08:07:49;21;19;
48893;PMS5003;34710;35.798;139.446;2023-06-26T08:10:14;24;23;
48893;PMS5003;34710;35.798;139.446;2023-06-26T08:12:40;27;23;
48893;PMS5003;34710;35.798;139.446;2023-06-26T08:15:06;24;22;
48893;PMS5003;34710;35.798;139.446;2023-06-26T08:17:31;27;20;
48893;PMS5003;34710;35.798;139.446;2023-06-26T08:19:56;23;22;
48893;PMS5003;34710;35.798;139.446;2023-06-26T08:22:23;25;21;
48893;PMS5003;34710;35.798;139.446;2023-06-26T08:24:48;21;20;
48893;PMS5003;34710;35.798;139.446;2023-06-26T08:27:13;17;17;
48893;PMS5003;34710;35.798;139.446;2023-06-26T08:29:38;27;23;
48893;PMS5003;34710;35.798;139.446;2023-06-26T08:32:04;25;20;
48893;PMS5003;34710;35.798;139.446;2023-06-26T08:34:29;26;19;
48893;PMS5003;34710;35.798;139.446;2023-06-26T08:36:54;22;22;
48893;PMS5003;34710;35.798;139.446;2023-06-26T08:39:20;26;17;
48893;PMS5003;34710;35.798;139.446;2023-06-26T08:41:45;18;18;
48893;PMS5003;34710;35.798;139.446;2023-06-26T08:44:10;26;20;
48893;PMS5003;34710;35.798;139.446;2023-06-26T08:46:35;20;20;
48893;PMS5003;34710;35.798;139.446;2023-06-26T08:49:01;24;23;
48893;PMS5003;34710;35.798;139.446;2023-06-26T08:51:25;27;27;
48893;PMS5003;34710;35.798;139.446;2023-06-26T08:53:55;21;19;
48893;PMS5003;34710;35.798;139.446;2023-06-26T08:56:17;22;21;
48893;PMS5003;34710;35.798;139.446;2023-06-26T08:58:41;22;21;
48893;PMS5003;34710;35.798;139.446;2023-06-26T09:01:07;31;21;
48893;PMS5003;34710;35.798;139.446;2023-06-26T09:03:32;22;22;
48893;PMS5003;34710;35.798;139.446;2023-06-26T09:05:57;32;21;
48893;PMS5003;34710;35.798;139.446;2023-06-26T09:08:22;35;22;
48893;PMS5003;34710;35.798;139.446;2023-06-26T09:10:48;19;19;
48893;PMS5003;34710;35.798;139.446;2023-06-26T09:13:13;34;22;
48893;PMS5003;34710;35.798;139.446;2023-06-26T09:15:38;28;27;
48893;PMS5003;34710;35.798;139.446;2023-06-26T09:18:04;25;24;
48893;PMS5003;34710;35.798;139.446;2023-06-26T09:20:29;25;22;
48893;PMS5003;34710;35.798;139.446;2023-06-26T09:22:54;37;25;
48893;PMS5003;34710;35.798;139.446;2023-06-26T09:25:19;26;24;
48893;PMS5003;34710;35.798;139.446;2023-06-26T09:27:45;25;25;
48893;PMS5003;34710;35.798;139.446;2023-06-26T09:30:11;23;22;
48893;PMS5003;34710;35.798;139.446;2023-06-26T09:32:36;27;22;
48893;PMS5003;34710;35.798;139.446;2023-06-26T09:35:01;23;22;
48893;PMS5003;34710;35.798;139.446;2023-06-26T09:37:26;24;22;
48893;PMS5003;34710;35.798;139.446;2023-06-26T09:39:51;24;21;
48893;PMS5003;34710;35.798;139.446;2023-06-26T09:42:16;24;24;
48893;PMS5003;34710;35.798;139.446;2023-06-26T09:44:44;27;26;
48893;PMS5003;34710;35.798;139.446;2023-06-26T09:47:07;27;26;
48893;PMS5003;34710;35.798;139.446;2023-06-26T09:49:32;25;25;
48893;PMS5003;34710;35.798;139.446;2023-06-26T09:51:59;27;23;
48893;PMS5003;34710;35.798;139.446;2023-06-26T09:54:23;23;22;
48893;PMS5003;34710;35.798;139.446;2023-06-26T09:56:49;32;24;
48893;PMS5003;34710;35.798;139.446;2023-06-26T09:59:14;32;25;
48893;PMS5003;34710;35.798;139.446;2023-06-26T10:01:40;24;24;
48893;PMS5003;34710;35.798;139.446;2023-06-26T10:04:05;28;25;
48893;PMS5003;34710;35.798;139.446;2023-06-26T10:06:31;28;24;
48893;PMS5003;34710;35.798;139.446;2023-06-26T10:08:56;24;24;
48893;PMS5003;34710;35.798;139.446;2023-06-26T10:11:21;27;22;
48893;PMS5003;34710;35.798;139.446;2023-06-26T10:13:45;26;24;
48893;PMS5003;34710;35.798;139.446;2023-06-26T10:16:11;22;22;
48893;PMS5003;34710;35.798;139.446;2023-06-26T10:18:37;28;24;
48893;PMS5003;34710;35.798;139.446;2023-06-26T10:21:03;26;24;
48893;PMS5003;34710;35.798;139.446;2023-06-26T10:23:28;32;21;
48893;PMS5003;34710;35.798;139.446;2023-06-26T10:25:54;32;25;
48893;PMS5003;34710;35.798;139.446;2023-06-26T10:28:18;26;25;
48893;PMS5003;34710;35.798;139.446;2023-06-26T10:30:44;28;24;
48893;PMS5003;34710;35.798;139.446;2023-06-26T10:33:09;31;23;
48893;PMS5003;34710;35.798;139.446;2023-06-26T10:35:40;26;25;
48893;PMS5003;34710;35.798;139.446;2023-06-26T10:38:01;32;24;
48893;PMS5003;34710;35.798;139.446;2023-06-26T10:40:25;24;23;
48893;PMS5003;34710;35.798;139.446;2023-06-26T10:42:50;29;27;
48893;PMS5003;34710;35.798;139.446;2023-06-26T10:45:17;35;24;
48893;PMS5003;34710;35.798;139.446;2023-06-26T10:47:46;32;28;
48893;PMS5003;34710;35.798;139.446;2023-06-26T10:52:36;35;23;
48893;PMS5003;34710;35.798;139.446;2023-06-26T10:54:56;39;29;
48893;PMS5003;34710;35.798;139.446;2023-06-26T10:57:25;36;26;
48893;PMS5003;34710;35.798;139.446;2023-06-26T10:59:48;30;27;
48893;PMS5003;34710;35.798;139.446;2023-06-26T11:02:13;35;26;
48893;PMS5003;34710;35.798;139.446;2023-06-26T11:04:39;30;26;
48893;PMS5003;34710;35.798;139.446;2023-06-26T11:09:29;36;27;
48893;PMS5003;34710;35.798;139.446;2023-06-26T11:11:56;26;25;
48893;PMS5003;34710;35.798;139.446;2023-06-26T11:14:20;27;24;
48893;PMS5003;34710;35.798;139.446;2023-06-26T11:16:45;32;24;
48893;PMS5003;34710;35.798;139.446;2023-06-26T11:19:10;25;24;
48893;PMS5003;34710;35.798;139.446;2023-06-26T11:21:35;24;24;
48893;PMS5003;34710;35.798;139.446;2023-06-26T11:24:01;35;25;
48893;PMS5003;34710;35.798;139.446;2023-06-26T11:26:26;30;23;
48893;PMS5003;34710;35.798;139.446;2023-06-26T11:28:52;25;25;
48893;PMS5003;34710;35.798;139.446;2023-06-26T11:31:25;22;22;
48893;PMS5003;34710;35.798;139.446;2023-06-26T11:33:46;25;25;
48893;PMS5003;34710;35.798;139.446;2023-06-26T11:36:10;29;28;
48893;PMS5003;34710;35.798;139.446;2023-06-26T11:40:59;26;26;
48893;PMS5003;34710;35.798;139.446;2023-06-26T11:43:23;39;26;
48893;PMS5003;34710;35.798;139.446;2023-06-26T11:45:49;32;25;
48893;PMS5003;34710;35.798;139.446;2023-06-26T11:48:14;29;25;
48893;PMS5003;34710;35.798;139.446;2023-06-26T11:50:39;38;27;
48893;PMS5003;34710;35.798;139.446;2023-06-26T11:53:04;24;24;
48893;PMS5003;34710;35.798;139.446;2023-06-26T11:55:39;23;23;
48893;PMS5003;34710;35.798;139.446;2023-06-26T11:57:55;28;24;
48893;PMS5003;34710;35.798;139.446;2023-06-26T12:00:20;30;25;
48893;PMS5003;34710;35.798;139.446;2023-06-26T12:02:45;25;24;
48893;PMS5003;34710;35.798;139.446;2023-06-26T12:05:11;31;24;
48893;PMS5003;34710;35.798;139.446;2023-06-26T12:07:36;36;24;
48893;PMS5003;34710;35.798;139.446;2023-06-26T12:10:01;35;25;
48893;PMS5003;34710;35.798;139.446;2023-06-26T12:12:26;28;23;
48893;PMS5003;34710;35.798;139.446;2023-06-26T12:14:51;26;23;
48893;PMS5003;34710;35.798;139.446;2023-06-26T12:17:17;25;24;
48893;PMS5003;34710;35.798;139.446;2023-06-26T12:19:44;24;21;
48893;PMS5003;34710;35.798;139.446;2023-06-26T12:22:08;28;24;
48893;PMS5003;34710;35.798;139.446;2023-06-26T12:24:35;24;24;
48893;PMS5003;34710;35.798;139.446;2023-06-26T12:26:58;31;26;
48893;PMS5003;34710;35.798;139.446;2023-06-26T12:31:50;28;24;
48893;PMS5003;34710;35.798;139.446;2023-06-26T12:34:17;28;25;
48893;PMS5003;34710;35.798;139.446;2023-06-26T12:36:41;28;26;
48893;PMS5003;34710;35.798;139.446;2023-06-26T12:39:08;23;23;
48893;PMS5003;34710;35.798;139.446;2023-06-26T12:41:32;32;25;
48893;PMS5003;34710;35.798;139.446;2023-06-26T12:43:57;28;25;
48893;PMS5003;34710;35.798;139.446;2023-06-26T12:48:47;26;25;
48893;PMS5003;34710;35.798;139.446;2023-06-26T12:51:12;28;25;
48893;PMS5003;34710;35.798;139.446;2023-06-26T12:53:37;40;25;
48893;PMS5003;34710;35.798;139.446;2023-06-26T12:56:03;36;26;
48893;PMS5003;34710;35.798;139.446;2023-06-26T12:58:28;26;25;
48893;PMS5003;34710;35.798;139.446;2023-06-26T13:00:53;30;25;
48893;PMS5003;34710;35.798;139.446;2023-06-26T13:03:19;32;24;
48893;PMS5003;34710;35.798;139.446;2023-06-26T13:05:45;27;25;
48893;PMS5003;34710;35.798;139.446;2023-06-26T13:08:10;30;26;
48893;PMS5003;34710;35.798;139.446;2023-06-26T13:10:35;25;24;
48893;PMS5003;34710;35.798;139.446;2023-06-26T13:13:00;25;24;
48893;PMS5003;34710;35.798;139.446;2023-06-26T13:15:25;30;27;
48893;PMS5003;34710;35.798;139.446;2023-06-26T13:17:51;37;24;
48893;PMS5003;34710;35.798;139.446;2023-06-26T13:20:16;26;25;
48893;PMS5003;34710;35.798;139.446;2023-06-26T13:22:41;28;25;
48893;PMS5003;34710;35.798;139.446;2023-06-26T13:25:07;40;27;
48893;PMS5003;34710;35.798;139.446;2023-06-26T13:27:32;40;29;
48893;PMS5003;34710;35.798;139.446;2023-06-26T13:29:58;29;27;
48893;PMS5003;34710;35.798;139.446;2023-06-26T13:32:24;36;28;
48893;PMS5003;34710;35.798;139.446;2023-06-26T13:34:49;29;25;
48893;PMS5003;34710;35.798;139.446;2023-06-26T13:37:14;24;24;
48893;PMS5003;34710;35.798;139.446;2023-06-26T13:39:40;37;23;
48893;PMS5003;34710;35.798;139.446;2023-06-26T13:42:05;29;28;
48893;PMS5003;34710;35.798;139.446;2023-06-26T13:44:31;31;28;
48893;PMS5003;34710;35.798;139.446;2023-06-26T13:46:56;36;27;
48893;PMS5003;34710;35.798;139.446;2023-06-26T13:49:22;23;22;
48893;PMS5003;34710;35.798;139.446;2023-06-26T13:51:47;34;25;
48893;PMS5003;34710;35.798;139.446;2023-06-26T13:54:12;38;28;
48893;PMS5003;34710;35.798;139.446;2023-06-26T13:56:37;39;27;
48893;PMS5003;34710;35.798;139.446;2023-06-26T13:59:02;26;26;
48893;PMS5003;34710;35.798;139.446;2023-06-26T14:01:27;30;29;
48893;PMS5003;34710;35.798;139.446;2023-06-26T14:03:52;40;27;
48893;PMS5003;34710;35.798;139.446;2023-06-26T14:06:18;35;33;
48893;PMS5003;34710;35.798;139.446;2023-06-26T14:08:43;31;28;
48893;PMS5003;34710;35.798;139.446;2023-06-26T14:11:09;38;31;
48893;PMS5003;34710;35.798;139.446;2023-06-26T14:13:34;37;31;
48893;PMS5003;34710;35.798;139.446;2023-06-26T14:16:00;36;32;
48893;PMS5003;34710;35.798;139.446;2023-06-26T14:18:25;33;28;
48893;PMS5003;34710;35.798;139.446;2023-06-26T14:20:51;32;29;
48893;PMS5003;34710;35.798;139.446;2023-06-26T14:23:16;42;27;
48893;PMS5003;34710;35.798;139.446;2023-06-26T14:25:41;31;31;
48893;PMS5003;34710;35.798;139.446;2023-06-26T14:28:07;33;31;
48893;PMS5003;34710;35.798;139.446;2023-06-26T14:30:32;36;29;
48893;PMS5003;34710;35.798;139.446;2023-06-26T14:32:58;48;31;
48893;PMS5003;34710;35.798;139.446;2023-06-26T14:35:23;32;31;
48893;PMS5003;34710;35.798;139.446;2023-06-26T14:37:48;34;28;
48893;PMS5003;34710;35.798;139.446;2023-06-26T14:40:14;36;33;
48893;PMS5003;34710;35.798;139.446;2023-06-26T14:42:40;39;35;
48893;PMS5003;34710;35.798;139.446;2023-06-26T14:45:05;34;29;
48893;PMS5003;34710;35.798;139.446;2023-06-26T14:47:30;44;32;
48893;PMS5003;34710;35.798;139.446;2023-06-26T14:49:56;39;32;
48893;PMS5003;34710;35.798;139.446;2023-06-26T14:52:21;28;26;
48893;PMS5003;34710;35.798;139.446;2023-06-26T14:54:47;41;28;
48893;PMS5003;34710;35.798;139.446;2023-06-26T14:57:12;37;34;
48893;PMS5003;34710;35.798;139.446;2023-06-26T14:59:38;33;30;
48893;PMS5003;34710;35.798;139.446;2023-06-26T15:02:03;37;33;
48893;PMS5003;34710;35.798;139.446;2023-06-26T15:04:28;46;32;
48893;PMS5003;34710;35.798;139.446;2023-06-26T15:06:56;33;31;
48893;PMS5003;34710;35.798;139.446;2023-06-26T15:09:19;41;30;
48893;PMS5003;34710;35.798;139.446;2023-06-26T15:11:44;39;31;
48893;PMS5003;34710;35.798;139.446;2023-06-26T15:14:10;33;31;
48893;PMS5003;34710;35.798;139.446;2023-06-26T15:16:35;39;33;
48893;PMS5003;34710;35.798;139.446;2023-06-26T15:19:01;39;33;
48893;PMS5003;34710;35.798;139.446;2023-06-26T15:21:26;28;28;
48893;PMS5003;34710;35.798;139.446;2023-06-26T15:23:51;37;34;
48893;PMS5003;34710;35.798;139.446;2023-06-26T15:26:17;34;30;
48893;PMS5003;34710;35.798;139.446;2023-06-26T15:28:42;30;27;
48893;PMS5003;34710;35.798;139.446;2023-06-26T15:31:07;33;30;
48893;PMS5003;34710;35.798;139.446;2023-06-26T15:33:32;42;31;
48893;PMS5003;34710;35.798;139.446;2023-06-26T15:35:58;34;29;
48893;PMS5003;34710;35.798;139.446;2023-06-26T15:38:24;34;33;
48893;PMS5003;34710;35.798;139.446;2023-06-26T15:40:50;48;33;
48893;PMS5003;34710;35.798;139.446;2023-06-26T15:43:16;37;31;
48893;PMS5003;34710;35.798;139.446;2023-06-26T15:45:41;35;30;